Aviation Digital Data Service (ADDS)

Output produced by METARs form (2117 UTC 16 February 2019)
found at http://www.aviationweather.gov/metar/data/
 
Forecast for: KPSP (PALM SPRINGS , CA, US)
Text: KPSP 161725Z 1618/1718 33011G20KT P6SM SKC
Forecast period: 1800 UTC 16 February 2019 to 0900 UTC 17 February 2019
Forecast type: FROM: standard forecast or significant change
Winds: from the NNW (330 degrees) at 13 MPH (11 knots; 5.7 m/s)
gusting to 23 MPH (20 knots; 10.3 m/s)
Visibility: 6 or more miles 10+ km)
Clouds: clear skies
Weather: no significant weather forecast for this period
Text: FM170900 02010KT P6SM SKC
Forecast period: 0900 to 1800 UTC 17 February 2019
Forecast type: FROM: standard forecast or significant change
Winds: from the NNE (20 degrees) at 12 MPH (10 knots; 5.1 m/s)
Visibility: 6 or more miles 10+ km)
Clouds: clear skies
Weather: no significant weather forecast for this period